createdAt,value
2022-09-16T00:00:16.341Z,81.21
2022-09-16T00:01:16.470Z,80.80
2022-09-16T00:02:16.379Z,81.52
2022-09-16T00:03:16.296Z,80.60
2022-09-16T00:04:16.291Z,80.80
2022-09-16T00:05:16.291Z,80.50
2022-09-16T00:06:16.294Z,80.70
2022-09-16T00:07:16.276Z,80.70
2022-09-16T00:08:16.307Z,80.94
2022-09-16T00:09:16.255Z,80.74
2022-09-16T00:10:16.280Z,81.04
2022-09-16T00:11:16.245Z,81.25
2022-09-16T00:12:16.238Z,81.25
2022-09-16T00:13:16.249Z,81.35
2022-09-16T00:14:16.225Z,81.56
2022-09-16T00:15:16.223Z,81.25
2022-09-16T00:16:16.287Z,80.74
2022-09-16T00:17:16.236Z,81.04
2022-09-16T00:18:16.225Z,80.84
2022-09-16T00:19:16.191Z,81.15
2022-09-16T00:20:16.185Z,80.84
2022-09-16T00:21:16.188Z,81.45
2022-09-16T00:22:22.173Z,80.74
2022-09-16T00:23:16.178Z,80.74
2022-09-16T00:24:16.194Z,80.94
2022-09-16T00:25:16.152Z,80.54
2022-09-16T00:26:16.153Z,81.35
2022-09-16T00:27:16.138Z,80.54
2022-09-16T00:28:16.369Z,80.84
2022-09-16T00:29:16.131Z,80.84
2022-09-16T00:30:16.126Z,80.84
2022-09-16T00:31:16.143Z,80.74
2022-09-16T00:32:16.117Z,80.64
2022-09-16T00:33:16.806Z,80.54
2022-09-16T00:34:16.088Z,80.64
2022-09-16T00:35:16.093Z,80.80
2022-09-16T00:36:16.215Z,80.43
2022-09-16T00:37:16.067Z,80.64
2022-09-16T00:38:16.076Z,80.84
2022-09-16T00:39:16.490Z,80.64
2022-09-16T00:40:16.145Z,81.35
2022-09-16T00:41:16.048Z,81.45
2022-09-16T00:42:16.038Z,81.45
2022-09-16T00:43:16.052Z,81.45
2022-09-16T00:44:16.054Z,81.35
2022-09-16T00:45:16.015Z,82.07
2022-09-16T00:46:16.060Z,82.17
2022-09-16T00:47:16.009Z,82.07
2022-09-16T00:48:16.003Z,81.96
2022-09-16T00:49:15.987Z,82.07
2022-09-16T00:50:16.013Z,81.66
2022-09-16T00:51:15.973Z,81.45
2022-09-16T00:52:15.964Z,81.76
2022-09-16T00:53:15.981Z,81.76
2022-09-16T00:54:15.977Z,81.25
2022-09-16T00:55:15.956Z,81.66
2022-09-16T00:56:15.987Z,81.80
2022-09-16T00:57:15.931Z,80.98
2022-09-16T00:58:15.946Z,81.80
2022-09-16T00:59:15.944Z,82.75
2022-09-16T01:00:16.135Z,83.57
2022-09-16T01:01:15.955Z,84.59
2022-09-16T01:02:15.986Z,84.94
2022-09-16T01:03:15.890Z,84.53
2022-09-16T01:04:15.885Z,85.24
2022-09-16T01:05:15.883Z,84.83
2022-09-16T01:06:16.084Z,84.63
2022-09-16T01:07:15.870Z,84.18
2022-09-16T01:08:15.868Z,84.08
2022-09-16T01:09:15.855Z,84.49
2022-09-16T01:10:17.296Z,84.18
2022-09-16T01:11:15.834Z,83.57
2022-09-16T01:12:15.856Z,84.28
2022-09-16T01:13:15.825Z,83.57
2022-09-16T01:14:15.814Z,84.18
2022-09-16T01:15:15.818Z,83.81
2022-09-16T01:16:15.940Z,83.78
2022-09-16T01:17:15.800Z,84.08
2022-09-16T01:18:15.782Z,84.39
2022-09-16T01:19:15.778Z,84.18
2022-09-16T01:20:15.778Z,84.42
2022-09-16T01:21:16.015Z,84.39
2022-09-16T01:22:15.770Z,84.59
2022-09-16T01:23:15.781Z,85.04
2022-09-16T01:24:15.761Z,84.83
2022-09-16T01:25:15.773Z,84.33
2022-09-16T01:26:15.727Z,84.42
2022-09-16T01:27:15.720Z,84.28
2022-09-16T01:28:16.105Z,84.22
2022-09-16T01:29:15.720Z,84.28
2022-09-16T01:30:15.710Z,84.33
2022-09-16T01:31:15.755Z,84.08
2022-09-16T01:32:16.821Z,84.28
2022-09-16T01:33:15.712Z,84.49
2022-09-16T01:34:15.681Z,84.53
2022-09-16T01:35:15.677Z,84.18
2022-09-16T01:36:15.666Z,84.28
2022-09-16T01:37:15.678Z,84.49
2022-09-16T01:38:15.662Z,84.83
2022-09-16T01:39:15.644Z,84.49
2022-09-16T01:40:15.730Z,84.80
2022-09-16T01:41:15.653Z,84.69
2022-09-16T01:42:15.628Z,84.49
2022-09-16T01:43:15.665Z,84.28
2022-09-16T01:44:15.694Z,84.49
2022-09-16T01:45:15.607Z,84.49
2022-09-16T01:46:15.680Z,84.08
2022-09-16T01:47:15.587Z,84.49
2022-09-16T01:48:15.586Z,84.80
2022-09-16T01:49:15.578Z,84.80
2022-09-16T01:50:15.566Z,84.90
2022-09-16T01:51:16.000Z,84.28
2022-09-16T01:52:15.554Z,84.90
2022-09-16T01:53:15.544Z,84.63
2022-09-16T01:54:15.543Z,84.69
2022-09-16T01:55:15.535Z,84.28
2022-09-16T01:56:16.824Z,84.53
2022-09-16T01:57:15.523Z,84.53
2022-09-16T01:58:15.507Z,84.39
2022-09-16T01:59:15.501Z,84.22
2022-09-16T02:00:15.547Z,84.12
2022-09-16T02:01:16.441Z,84.18
2022-09-16T02:02:15.704Z,83.98
2022-09-16T02:03:15.745Z,84.12
2022-09-16T02:04:15.464Z,83.92
2022-09-16T02:05:15.460Z,84.33
2022-09-16T02:06:15.463Z,84.26
2022-09-16T02:07:15.448Z,84.36
2022-09-16T02:08:15.542Z,84.67
2022-09-16T02:09:15.439Z,84.88
2022-09-16T02:10:15.421Z,84.88
2022-09-16T02:11:15.436Z,84.88
2022-09-16T02:12:15.416Z,85.08
2022-09-16T02:13:15.403Z,84.98
2022-09-16T02:14:15.403Z,85.08
2022-09-16T02:15:15.397Z,86.00
2022-09-16T02:16:16.003Z,86.00
2022-09-16T02:17:15.802Z,86.00
2022-09-16T02:18:15.368Z,85.83
2022-09-16T02:19:15.381Z,85.94
2022-09-16T02:20:15.361Z,86.35
2022-09-16T02:21:15.346Z,86.10
2022-09-16T02:22:15.450Z,86.24
2022-09-16T02:23:15.342Z,86.35
2022-09-16T02:24:15.326Z,85.94
2022-09-16T02:25:15.393Z,85.73
2022-09-16T02:26:15.314Z,85.32
2022-09-16T02:27:15.312Z,85.42
2022-09-16T02:28:15.314Z,85.22
2022-09-16T02:29:15.315Z,85.12
2022-09-16T02:30:15.300Z,86.35
2022-09-16T02:31:15.703Z,85.73
2022-09-16T02:32:15.301Z,85.94
2022-09-16T02:33:15.366Z,86.14
2022-09-16T02:34:17.004Z,86.29
2022-09-16T02:35:15.256Z,85.73
2022-09-16T02:36:15.253Z,87.41
2022-09-16T02:37:15.253Z,87.61
2022-09-16T02:38:15.232Z,87.41
2022-09-16T02:39:15.681Z,87.04
2022-09-16T02:40:15.312Z,87.30
2022-09-16T02:41:15.219Z,87.30
2022-09-16T02:42:15.215Z,87.41
2022-09-16T02:43:15.211Z,86.69
2022-09-16T02:44:15.193Z,85.77
2022-09-16T02:45:16.186Z,86.29
2022-09-16T02:46:15.230Z,86.08
2022-09-16T02:47:15.188Z,86.38
2022-09-16T02:48:15.217Z,86.38
2022-09-16T02:49:15.184Z,85.77
2022-09-16T02:50:15.158Z,85.77
2022-09-16T02:51:15.154Z,86.08
2022-09-16T02:52:15.143Z,85.73
2022-09-16T02:53:15.135Z,86.08
2022-09-16T02:54:15.179Z,86.08
2022-09-16T02:55:15.166Z,86.04
2022-09-16T02:56:15.113Z,86.04
2022-09-16T02:57:15.118Z,86.08
2022-09-16T02:58:15.100Z,86.24
2022-09-16T02:59:15.096Z,86.14
2022-09-16T03:00:15.128Z,86.24
2022-09-16T03:01:15.087Z,85.94
2022-09-16T03:02:15.114Z,85.88
2022-09-16T03:03:15.146Z,86.18
2022-09-16T03:04:15.100Z,86.69
2022-09-16T03:05:15.063Z,86.59
2022-09-16T03:06:15.061Z,86.90
2022-09-16T03:07:15.478Z,87.41
2022-09-16T03:08:15.042Z,87.45
2022-09-16T03:09:15.034Z,87.85
2022-09-16T03:10:15.040Z,87.24
2022-09-16T03:11:15.013Z,87.35
2022-09-16T03:12:15.345Z,87.55
2022-09-16T03:13:15.000Z,87.35
2022-09-16T03:14:15.267Z,87.41
2022-09-16T03:15:14.992Z,87.20
2022-09-16T03:16:15.011Z,87.14
2022-09-16T03:17:14.997Z,87.41
2022-09-16T03:18:14.967Z,87.20
2022-09-16T03:19:14.971Z,87.76
2022-09-16T03:20:14.993Z,87.85
2022-09-16T03:21:14.947Z,87.76
2022-09-16T03:22:14.939Z,86.90
2022-09-16T03:23:14.947Z,87.35
2022-09-16T03:24:14.917Z,87.04
2022-09-16T03:25:14.917Z,87.45
2022-09-16T03:26:14.916Z,87.04
2022-09-16T03:27:14.906Z,87.41
2022-09-16T03:28:14.927Z,87.82
2022-09-16T03:29:14.890Z,87.85
2022-09-16T03:30:14.882Z,88.06
2022-09-16T03:31:14.938Z,87.96
2022-09-16T03:32:14.874Z,88.37
2022-09-16T03:33:14.875Z,88.68
2022-09-16T03:34:15.203Z,87.96
2022-09-16T03:35:14.862Z,88.37
2022-09-16T03:36:14.858Z,88.17
2022-09-16T03:37:14.833Z,87.76
2022-09-16T03:38:14.888Z,87.85
2022-09-16T03:39:14.810Z,87.24
2022-09-16T03:40:14.885Z,87.14
2022-09-16T03:41:14.809Z,87.00
2022-09-16T03:42:14.794Z,87.41
2022-09-16T03:43:14.787Z,86.94
2022-09-16T03:44:14.803Z,87.20
2022-09-16T03:45:14.772Z,87.14
2022-09-16T03:46:14.812Z,87.41
2022-09-16T03:47:14.764Z,87.71
2022-09-16T03:48:14.758Z,87.71
2022-09-16T03:49:14.751Z,87.10
2022-09-16T03:50:14.757Z,87.10
2022-09-16T03:51:14.732Z,87.20
2022-09-16T03:52:14.754Z,87.41
2022-09-16T03:53:15.405Z,87.51
2022-09-16T03:54:14.718Z,87.20
2022-09-16T03:55:14.716Z,86.38
2022-09-16T03:56:15.365Z,86.69
2022-09-16T03:57:14.728Z,87.41
2022-09-16T03:58:15.138Z,87.41
2022-09-16T03:59:14.841Z,87.51
2022-09-16T04:00:14.667Z,87.20
2022-09-16T04:01:14.731Z,87.71
2022-09-16T04:02:14.793Z,87.55
2022-09-16T04:03:14.650Z,87.61
2022-09-16T04:04:14.647Z,87.20
2022-09-16T04:05:14.632Z,86.69
2022-09-16T04:06:14.640Z,87.65
2022-09-16T04:07:14.625Z,86.83
2022-09-16T04:08:15.066Z,86.38
2022-09-16T04:09:14.610Z,86.08
2022-09-16T04:10:14.595Z,86.63
2022-09-16T04:11:14.589Z,86.69
2022-09-16T04:12:15.023Z,87.35
2022-09-16T04:13:14.582Z,87.35
2022-09-16T04:14:14.572Z,86.73
2022-09-16T04:15:14.561Z,86.43
2022-09-16T04:16:14.636Z,86.83
2022-09-16T04:17:14.562Z,87.65
2022-09-16T04:18:14.563Z,87.65
2022-09-16T04:19:14.533Z,86.63
2022-09-16T04:20:14.531Z,87.55
2022-09-16T04:21:14.529Z,87.65
2022-09-16T04:22:14.516Z,87.55
2022-09-16T04:23:14.519Z,87.55
2022-09-16T04:24:14.543Z,87.55
2022-09-16T04:25:14.502Z,87.45
2022-09-16T04:26:14.498Z,87.49
2022-09-16T04:27:14.494Z,87.79
2022-09-16T04:28:14.476Z,87.14
2022-09-16T04:29:14.488Z,87.24
2022-09-16T04:30:14.452Z,87.45
2022-09-16T04:31:14.567Z,87.29
2022-09-16T04:32:14.446Z,86.98
2022-09-16T04:33:14.460Z,87.70
2022-09-16T04:34:14.462Z,87.76
2022-09-16T04:35:14.419Z,87.59
2022-09-16T04:36:14.513Z,87.04
2022-09-16T04:37:14.405Z,86.94
2022-09-16T04:38:14.408Z,86.63
2022-09-16T04:39:15.522Z,87.08
2022-09-16T04:40:14.449Z,86.94
2022-09-16T04:41:14.446Z,86.83
2022-09-16T04:42:14.373Z,86.53
2022-09-16T04:43:14.365Z,86.02
2022-09-16T04:44:14.370Z,86.43
2022-09-16T04:45:14.372Z,85.91
2022-09-16T04:46:14.419Z,86.43
2022-09-16T04:47:14.339Z,86.53
2022-09-16T04:48:14.331Z,86.02
2022-09-16T04:49:14.322Z,86.12
2022-09-16T04:50:15.605Z,87.04
2022-09-16T04:51:14.329Z,86.67
2022-09-16T04:52:14.294Z,86.67
2022-09-16T04:53:14.326Z,86.98
2022-09-16T04:54:14.289Z,86.88
2022-09-16T04:55:14.280Z,87.63
2022-09-16T04:56:14.297Z,87.90
2022-09-16T04:57:14.299Z,86.91
2022-09-16T04:58:14.250Z,87.73
2022-09-16T04:59:14.282Z,87.22
2022-09-16T05:00:14.254Z,87.63
2022-09-16T05:01:14.874Z,87.63
2022-09-16T05:02:14.226Z,87.73
2022-09-16T05:03:14.289Z,87.53
2022-09-16T05:04:14.255Z,87.84
2022-09-16T05:05:14.223Z,87.53
2022-09-16T05:06:18.346Z,87.43
2022-09-16T05:07:15.213Z,87.94
2022-09-16T05:08:14.207Z,87.84
2022-09-16T05:09:14.175Z,87.73
2022-09-16T05:10:14.184Z,87.43
2022-09-16T05:11:14.293Z,87.43
2022-09-16T05:12:14.272Z,87.32
2022-09-16T05:13:14.164Z,87.32
2022-09-16T05:14:14.154Z,86.81
2022-09-16T05:15:14.140Z,86.91
2022-09-16T05:16:14.311Z,86.71
2022-09-16T05:17:33.156Z,86.71
2022-09-16T05:18:15.118Z,86.98
2022-09-16T05:19:14.109Z,86.61
2022-09-16T05:20:14.109Z,86.71
2022-09-16T05:21:14.132Z,86.98
2022-09-16T05:22:14.100Z,86.91
2022-09-16T05:23:14.098Z,86.71
2022-09-16T05:24:14.068Z,87.90
2022-09-16T05:25:14.078Z,86.67
2022-09-16T05:26:14.061Z,86.88
2022-09-16T05:27:14.047Z,86.36
2022-09-16T05:28:14.185Z,86.26
2022-09-16T05:29:14.036Z,86.46
2022-09-16T05:30:14.032Z,86.36
2022-09-16T05:31:14.087Z,86.36
2022-09-16T05:32:14.012Z,86.05
2022-09-16T05:33:14.013Z,86.36
2022-09-16T05:34:14.462Z,86.67
2022-09-16T05:35:13.993Z,86.83
2022-09-16T05:36:13.989Z,86.53
2022-09-16T05:37:14.005Z,86.43
2022-09-16T05:38:13.972Z,86.12
2022-09-16T05:39:29.646Z,85.81
2022-09-16T05:40:15.029Z,86.12
2022-09-16T05:41:13.958Z,85.91
2022-09-16T05:42:14.491Z,85.88
2022-09-16T05:43:13.931Z,86.08
2022-09-16T05:44:14.066Z,85.88
2022-09-16T05:45:13.919Z,86.08
2022-09-16T05:46:13.962Z,86.59
2022-09-16T05:47:13.911Z,86.49
2022-09-16T05:48:14.607Z,85.06
2022-09-16T05:49:13.891Z,85.36
2022-09-16T05:50:13.919Z,84.95
2022-09-16T05:51:17.569Z,85.16
2022-09-16T05:52:14.866Z,84.95
2022-09-16T05:53:13.870Z,86.29
2022-09-16T05:54:13.860Z,85.02
2022-09-16T05:55:14.134Z,85.22
2022-09-16T05:56:13.846Z,85.12
2022-09-16T05:57:13.834Z,85.36
2022-09-16T05:58:13.825Z,84.95
2022-09-16T05:59:13.825Z,85.02
2022-09-16T06:00:13.926Z,84.61
2022-09-16T06:01:14.603Z,84.91
2022-09-16T06:02:13.855Z,85.36
2022-09-16T06:03:13.785Z,84.85
2022-09-16T06:04:13.783Z,84.61
2022-09-16T06:05:13.782Z,84.91
2022-09-16T06:06:13.790Z,85.06
2022-09-16T06:07:13.777Z,84.65
2022-09-16T06:08:13.760Z,85.12
2022-09-16T06:09:13.748Z,84.75
2022-09-16T06:10:13.737Z,85.06
2022-09-16T06:11:13.745Z,84.65
2022-09-16T06:12:13.724Z,84.65
2022-09-16T06:13:13.737Z,84.65
2022-09-16T06:14:13.720Z,84.75
2022-09-16T06:15:13.701Z,84.61
2022-09-16T06:16:13.879Z,84.24
2022-09-16T06:17:14.155Z,84.61
2022-09-16T06:18:13.677Z,83.89
2022-09-16T06:19:13.725Z,83.59
2022-09-16T06:20:13.673Z,83.44
2022-09-16T06:21:13.665Z,83.34
2022-09-16T06:22:13.677Z,82.73
2022-09-16T06:23:13.655Z,83.10
2022-09-16T06:24:13.646Z,82.79
2022-09-16T06:25:13.639Z,82.39
2022-09-16T06:26:13.635Z,82.79
2022-09-16T06:27:13.620Z,82.69
2022-09-16T06:28:13.640Z,82.53
2022-09-16T06:29:13.604Z,82.12
2022-09-16T06:30:13.598Z,82.83
2022-09-16T06:31:13.747Z,82.73
2022-09-16T06:32:13.751Z,81.81
2022-09-16T06:33:13.584Z,82.46
2022-09-16T06:34:13.593Z,82.93
2022-09-16T06:35:13.564Z,82.93
2022-09-16T06:36:13.559Z,83.59
2022-09-16T06:37:13.546Z,83.65
2022-09-16T06:38:13.544Z,83.54
2022-09-16T06:39:13.540Z,80.74
2022-09-16T06:40:14.184Z,79.07
2022-09-16T06:41:13.530Z,79.17
2022-09-16T06:42:13.963Z,79.21
2022-09-16T06:43:13.509Z,79.21
2022-09-16T06:44:13.511Z,80.16
2022-09-16T06:45:13.500Z,79.75
2022-09-16T06:46:13.711Z,81.09
2022-09-16T06:47:13.503Z,80.41
2022-09-16T06:48:13.601Z,80.91
2022-09-16T06:49:13.914Z,81.53
2022-09-16T06:50:13.466Z,81.32
2022-09-16T06:51:13.463Z,81.63
2022-09-16T06:52:13.447Z,81.53
2022-09-16T06:53:13.444Z,81.63
2022-09-16T06:54:13.450Z,80.91
2022-09-16T06:55:13.423Z,79.52
2022-09-16T06:56:13.426Z,80.07
2022-09-16T06:57:13.428Z,80.33
2022-09-16T06:58:13.398Z,79.68
2022-09-16T06:59:13.403Z,79.62
2022-09-16T07:00:13.388Z,79.72
2022-09-16T07:01:13.459Z,80.43
2022-09-16T07:02:13.468Z,79.62
2022-09-16T07:03:14.083Z,79.89
2022-09-16T07:04:14.123Z,76.52
2022-09-16T07:05:13.374Z,75.87
2022-09-16T07:06:13.345Z,75.57
2022-09-16T07:07:13.346Z,76.01
2022-09-16T07:08:13.345Z,77.00
2022-09-16T07:09:13.348Z,77.24
2022-09-16T07:10:13.398Z,78.50
2022-09-16T07:11:13.327Z,79.00
2022-09-16T07:12:17.433Z,79.11
2022-09-16T07:13:14.320Z,79.11
2022-09-16T07:14:14.108Z,79.00
2022-09-16T07:15:13.311Z,79.66
2022-09-16T07:16:14.256Z,80.13
2022-09-16T07:17:13.413Z,80.02
2022-09-16T07:18:13.276Z,79.82
2022-09-16T07:19:13.266Z,78.87
2022-09-16T07:20:13.375Z,78.83
2022-09-16T07:21:13.672Z,77.47
2022-09-16T07:22:13.240Z,77.37
2022-09-16T07:23:13.243Z,76.21
2022-09-16T07:24:13.275Z,76.21
2022-09-16T07:25:13.238Z,76.52
2022-09-16T07:26:13.206Z,75.19
2022-09-16T07:27:13.424Z,73.53
2022-09-16T07:28:13.232Z,71.26
2022-09-16T07:29:13.186Z,70.48
2022-09-16T07:30:13.195Z,69.91
2022-09-16T07:31:13.334Z,71.53
2022-09-16T07:32:13.190Z,71.06
2022-09-16T07:33:13.179Z,72.34
2022-09-16T07:34:13.153Z,73.16
2022-09-16T07:35:13.159Z,73.16
2022-09-16T07:36:15.269Z,72.99
2022-09-16T07:37:13.135Z,73.70
2022-09-16T07:38:13.133Z,74.15
2022-09-16T07:39:13.569Z,74.85
2022-09-16T07:40:13.236Z,75.30
2022-09-16T07:41:13.122Z,73.97
2022-09-16T07:42:13.105Z,75.09
2022-09-16T07:43:13.099Z,75.40
2022-09-16T07:44:13.098Z,75.87
2022-09-16T07:45:13.266Z,75.98
2022-09-16T07:46:13.141Z,75.53
2022-09-16T07:47:13.074Z,75.43
2022-09-16T07:48:13.065Z,75.29
2022-09-16T07:49:13.085Z,74.48
2022-09-16T07:50:13.062Z,74.92
2022-09-16T07:51:13.040Z,74.82
2022-09-16T07:52:13.171Z,75.67
2022-09-16T07:53:13.035Z,75.43
2022-09-16T07:54:13.012Z,74.79
2022-09-16T07:55:13.008Z,72.82
2022-09-16T07:56:13.005Z,70.69
2022-09-16T07:57:13.024Z,68.50
2022-09-16T07:58:12.982Z,67.79
2022-09-16T07:59:15.816Z,66.67
2022-09-16T08:00:13.982Z,67.96
2022-09-16T08:01:13.006Z,66.52
2022-09-16T08:02:13.077Z,65.13
2022-09-16T08:03:13.078Z,65.67
2022-09-16T08:04:13.367Z,67.45
2022-09-16T08:05:12.955Z,67.72
2022-09-16T08:06:12.928Z,66.33
2022-09-16T08:07:12.926Z,66.64
2022-09-16T08:08:13.051Z,66.60
2022-09-16T08:09:37.217Z,67.21
2022-09-16T08:10:13.911Z,67.72
2022-09-16T08:11:12.913Z,68.12
2022-09-16T08:12:12.892Z,67.41
2022-09-16T08:13:12.933Z,67.89
2022-09-16T08:14:12.892Z,66.44
2022-09-16T08:15:12.922Z,65.56
2022-09-16T08:16:12.924Z,65.64
2022-09-16T08:17:12.853Z,65.04
2022-09-16T08:18:12.838Z,61.52
2022-09-16T08:19:12.874Z,59.80
2022-09-16T08:20:12.842Z,60.35
2022-09-16T08:21:12.821Z,58.81
2022-09-16T08:22:12.819Z,58.48
2022-09-16T08:23:12.804Z,55.43
2022-09-16T08:24:13.372Z,56.54
2022-09-16T08:25:12.823Z,55.31
2022-09-16T08:26:12.807Z,53.95
2022-09-16T08:27:12.800Z,53.90
2022-09-16T08:28:12.779Z,54.53
2022-09-16T08:29:13.849Z,54.66
2022-09-16T08:30:12.759Z,54.38
2022-09-16T08:31:12.816Z,53.80
2022-09-16T08:32:12.749Z,54.23
2022-09-16T08:33:13.331Z,54.53
2022-09-16T08:34:12.741Z,54.46
2022-09-16T08:35:13.257Z,56.20
2022-09-16T08:36:12.726Z,55.79
2022-09-16T08:37:12.745Z,56.72
2022-09-16T08:38:12.707Z,57.12
2022-09-16T08:39:12.714Z,56.52
2022-09-16T08:40:12.938Z,58.34
2022-09-16T08:41:13.114Z,58.97
2022-09-16T08:42:12.706Z,56.85
2022-09-16T08:43:12.671Z,58.16
2022-09-16T08:44:12.666Z,58.36
2022-09-16T08:45:12.664Z,58.47
2022-09-16T08:46:12.702Z,58.34
2022-09-16T08:47:12.848Z,59.07
2022-09-16T08:48:12.634Z,59.27
2022-09-16T08:50:12.626Z,60.71
2022-09-16T08:51:12.614Z,62.05
2022-09-16T08:52:12.614Z,62.15
2022-09-16T08:53:13.187Z,62.99
2022-09-16T08:54:12.607Z,63.22
2022-09-16T08:55:12.598Z,63.25
2022-09-16T08:56:12.713Z,64.06
2022-09-16T08:57:12.572Z,63.96
2022-09-16T08:58:13.127Z,63.89
2022-09-16T08:59:12.566Z,64.39
2022-09-16T09:00:12.550Z,64.42
2022-09-16T09:01:12.674Z,64.59
2022-09-16T09:02:13.070Z,64.90
2022-09-16T09:03:12.967Z,64.90
2022-09-16T09:04:12.559Z,64.59
2022-09-16T09:05:12.525Z,64.26
2022-09-16T09:06:12.508Z,63.76
2022-09-16T09:07:12.522Z,62.54
2022-09-16T09:08:12.521Z,63.55
2022-09-16T09:09:12.820Z,63.62
2022-09-16T09:10:12.487Z,62.92
2022-09-16T09:11:12.473Z,61.91
2022-09-16T09:12:13.590Z,60.69
2022-09-16T09:13:13.546Z,61.10
2022-09-16T09:14:12.465Z,60.60
2022-09-16T09:15:12.449Z,61.40
2022-09-16T09:16:12.497Z,61.40
2022-09-16T09:17:12.440Z,62.01
2022-09-16T09:18:15.820Z,62.01
2022-09-16T09:19:12.670Z,61.77
2022-09-16T09:20:12.411Z,60.77
2022-09-16T09:21:12.405Z,60.77
2022-09-16T09:22:12.406Z,60.46
2022-09-16T09:23:12.391Z,60.74
2022-09-16T09:24:12.813Z,60.94
2022-09-16T09:25:12.382Z,60.21
2022-09-16T09:26:12.369Z,58.89
2022-09-16T09:27:12.369Z,58.89
2022-09-16T09:28:12.490Z,59.35
2022-09-16T09:29:12.805Z,59.56
2022-09-16T09:30:12.344Z,58.62
2022-09-16T09:31:12.377Z,58.72
2022-09-16T09:32:12.322Z,56.70
2022-09-16T09:33:28.015Z,56.85
2022-09-16T09:34:13.802Z,56.52
2022-09-16T09:35:12.307Z,55.96
2022-09-16T09:36:13.374Z,53.60
2022-09-16T09:37:12.295Z,52.89
2022-09-16T09:38:12.279Z,53.70
2022-09-16T09:39:12.288Z,54.50
2022-09-16T09:40:12.373Z,54.40
2022-09-16T09:41:12.261Z,54.38
2022-09-16T09:42:12.938Z,53.02
2022-09-16T09:43:12.250Z,52.77
2022-09-16T09:44:12.559Z,50.54
2022-09-16T09:45:12.239Z,48.57
2022-09-16T09:46:12.718Z,48.92
2022-09-16T09:47:12.240Z,46.95
2022-09-16T09:48:12.210Z,46.08
2022-09-16T09:49:12.203Z,44.40
2022-09-16T09:50:12.204Z,43.15
2022-09-16T09:51:12.627Z,41.02
2022-09-16T09:52:12.190Z,39.19
2022-09-16T09:53:12.189Z,40.42
2022-09-16T09:54:12.171Z,39.39
2022-09-16T09:55:16.108Z,40.47
2022-09-16T09:56:12.179Z,38.24
2022-09-16T09:57:12.195Z,38.31
2022-09-16T09:58:12.154Z,38.35
2022-09-16T09:59:12.137Z,36.97
2022-09-16T10:00:12.272Z,36.24
2022-09-16T10:01:12.838Z,33.79
2022-09-16T10:02:12.608Z,36.43
2022-09-16T10:03:12.329Z,37.29
2022-09-16T10:04:12.123Z,39.45
2022-09-16T10:05:13.163Z,39.53
2022-09-16T10:06:12.100Z,40.70
2022-09-16T10:07:12.111Z,43.75
2022-09-16T10:08:14.440Z,44.32
2022-09-16T10:09:12.946Z,44.76
2022-09-16T10:10:12.818Z,46.20
2022-09-16T10:11:12.056Z,48.33
2022-09-16T10:12:12.053Z,48.23
2022-09-16T10:13:12.063Z,47.99
2022-09-16T10:14:12.027Z,47.36
2022-09-16T10:15:13.102Z,48.14
2022-09-16T10:16:12.241Z,46.16
2022-09-16T10:17:12.018Z,45.56
2022-09-16T10:18:12.057Z,46.00
2022-09-16T10:19:11.996Z,46.33
2022-09-16T10:20:12.491Z,47.53
2022-09-16T10:21:11.992Z,46.55
2022-09-16T10:22:11.989Z,46.09
2022-09-16T10:23:11.987Z,46.69
2022-09-16T10:24:11.974Z,47.42
2022-09-16T10:25:11.960Z,47.42
2022-09-16T10:26:11.978Z,47.77
2022-09-16T10:27:11.983Z,49.27
2022-09-16T10:28:12.437Z,49.77
2022-09-16T10:29:11.942Z,49.45
2022-09-16T10:30:12.006Z,49.35
2022-09-16T10:31:12.413Z,48.85
2022-09-16T10:32:12.085Z,49.85
2022-09-16T10:33:11.911Z,49.77
2022-09-16T10:34:11.916Z,50.78
2022-09-16T10:35:11.904Z,49.98
2022-09-16T10:36:11.910Z,49.88
2022-09-16T10:37:11.879Z,50.00
2022-09-16T10:38:11.882Z,49.50
2022-09-16T10:39:11.868Z,50.15
2022-09-16T10:40:11.908Z,51.46
2022-09-16T10:41:12.281Z,51.97
2022-09-16T10:42:11.848Z,51.99
2022-09-16T10:43:11.878Z,53.92
2022-09-16T10:44:16.473Z,53.60
2022-09-16T10:45:12.831Z,54.08
2022-09-16T10:46:12.623Z,53.98
2022-09-16T10:47:11.812Z,53.52
2022-09-16T10:48:11.941Z,53.27
2022-09-16T10:49:11.804Z,53.72
2022-09-16T10:50:11.807Z,53.82
2022-09-16T10:51:11.820Z,52.39
2022-09-16T10:52:11.786Z,49.86
2022-09-16T10:53:11.769Z,47.96
2022-09-16T10:54:11.768Z,48.31
2022-09-16T10:55:11.754Z,47.36
2022-09-16T10:56:11.748Z,46.08
2022-09-16T10:57:11.760Z,47.45
2022-09-16T10:58:11.734Z,47.90
2022-09-16T10:59:11.735Z,48.38
2022-09-16T11:00:11.749Z,46.70
2022-09-16T11:01:12.590Z,45.70
2022-09-16T11:02:11.957Z,46.25
2022-09-16T11:03:11.703Z,46.41
2022-09-16T11:04:11.827Z,46.41
2022-09-16T11:05:11.688Z,45.76
2022-09-16T11:06:12.142Z,44.79
2022-09-16T11:07:11.897Z,43.84
2022-09-16T11:08:11.676Z,46.64
2022-09-16T11:09:11.662Z,45.37
2022-09-16T11:10:11.648Z,43.43
2022-09-16T11:11:12.080Z,42.47
2022-09-16T11:12:12.062Z,42.21
2022-09-16T11:13:11.627Z,40.46
2022-09-16T11:14:11.634Z,42.46
2022-09-16T11:15:12.852Z,43.51
2022-09-16T11:16:11.721Z,45.06
2022-09-16T11:17:11.675Z,45.68
2022-09-16T11:18:11.598Z,46.00
2022-09-16T11:19:11.958Z,45.42
2022-09-16T11:20:11.718Z,47.35
2022-09-16T11:21:11.575Z,48.28
2022-09-16T11:22:11.571Z,48.48
2022-09-16T11:23:11.567Z,48.88
2022-09-16T11:24:11.560Z,47.50
2022-09-16T11:25:12.706Z,47.60
2022-09-16T11:26:11.550Z,48.38
2022-09-16T11:27:11.541Z,47.30
2022-09-16T11:28:11.534Z,48.65
2022-09-16T11:29:11.529Z,48.75
2022-09-16T11:30:12.270Z,48.55
2022-09-16T11:31:11.571Z,49.85
2022-09-16T11:32:11.504Z,48.93
2022-09-16T11:33:11.727Z,46.01
2022-09-16T11:34:11.488Z,42.51
2022-09-16T11:35:11.474Z,40.54
2022-09-16T11:36:14.316Z,40.38
2022-09-16T11:37:11.469Z,37.18
2022-09-16T11:38:11.464Z,37.93
2022-09-16T11:39:11.445Z,37.25
2022-09-16T11:40:11.531Z,37.34
2022-09-16T11:41:11.444Z,37.20
2022-09-16T11:42:11.502Z,35.95
2022-09-16T11:43:11.426Z,36.00
2022-09-16T11:44:11.421Z,35.65
2022-09-16T11:45:11.411Z,33.03
2022-09-16T11:46:11.490Z,32.90
2022-09-16T11:47:11.394Z,30.41
2022-09-16T11:48:11.816Z,30.04
2022-09-16T11:49:12.563Z,31.99
2022-09-16T11:50:11.407Z,31.65
2022-09-16T11:51:11.372Z,29.94
2022-09-16T11:52:11.503Z,29.33
2022-09-16T11:53:12.504Z,29.97
2022-09-16T11:54:11.422Z,28.47
2022-09-16T11:55:11.353Z,27.20
2022-09-16T11:56:11.333Z,27.20
2022-09-16T11:57:13.248Z,29.00
2022-09-16T11:58:11.314Z,30.37
2022-09-16T11:59:11.316Z,31.23
2022-09-16T12:00:11.441Z,32.18
2022-09-16T12:01:11.320Z,33.78
2022-09-16T12:02:11.411Z,33.49
2022-09-16T12:03:12.000Z,34.10
2022-09-16T12:04:11.268Z,33.44
2022-09-16T12:05:11.271Z,32.98
2022-09-16T12:06:11.272Z,33.44
2022-09-16T12:07:11.344Z,34.58
2022-09-16T12:08:11.386Z,34.45
2022-09-16T12:09:11.270Z,35.50
2022-09-16T12:10:12.009Z,37.34
2022-09-16T12:11:11.232Z,35.97
2022-09-16T12:12:11.221Z,37.40
2022-09-16T12:13:11.235Z,35.74
2022-09-16T12:14:11.208Z,37.38
2022-09-16T12:15:11.867Z,34.61
2022-09-16T12:16:11.183Z,36.05
2022-09-16T12:17:11.184Z,37.96
2022-09-16T12:18:11.169Z,37.96
2022-09-16T12:19:11.170Z,38.59
2022-09-16T12:20:11.242Z,37.60
2022-09-16T12:21:11.161Z,38.90
2022-09-16T12:22:11.161Z,39.40
2022-09-16T12:23:11.138Z,40.63
2022-09-16T12:24:11.264Z,37.38
2022-09-16T12:25:11.137Z,34.18
2022-09-16T12:26:11.162Z,33.42
2022-09-16T12:27:11.162Z,31.46
2022-09-16T12:28:11.106Z,30.23
2022-09-16T12:29:11.108Z,28.21
2022-09-16T12:30:11.388Z,28.86
2022-09-16T12:31:11.189Z,26.59
2022-09-16T12:32:11.088Z,28.17
2022-09-16T12:33:11.068Z,26.48
2022-09-16T12:34:11.102Z,26.68
2022-09-16T12:35:12.185Z,26.26
2022-09-16T12:36:11.045Z,26.46
2022-09-16T12:37:11.049Z,26.58
2022-09-16T12:38:11.032Z,27.92
2022-09-16T12:39:11.034Z,28.66
2022-09-16T12:40:11.557Z,29.51
2022-09-16T12:41:11.014Z,29.11
2022-09-16T12:42:11.006Z,29.78
2022-09-16T12:43:11.098Z,28.66
2022-09-16T12:44:30.533Z,27.47
2022-09-16T12:45:12.416Z,29.44
2022-09-16T12:46:11.119Z,28.86
2022-09-16T12:47:10.973Z,29.81
2022-09-16T12:48:10.960Z,31.17
2022-09-16T12:49:10.963Z,31.48
2022-09-16T12:50:10.960Z,32.28
2022-09-16T12:51:11.379Z,31.96
2022-09-16T12:52:10.974Z,31.68
2022-09-16T12:53:10.939Z,32.15